sensor_id;sensor_type;location;lat;lon;timestamp;pressure;altitude;pressure_sealevel;temperature;humidity
62420;BME280;48460;51.616;5.426;2022-07-29T00:01:34;101584.69;;;18.30;56.27
62420;BME280;48460;51.616;5.426;2022-07-29T00:03:59;101588.31;;;18.29;56.58
62420;BME280;48460;51.616;5.426;2022-07-29T00:06:25;101588.53;;;18.26;56.73
62420;BME280;48460;51.616;5.426;2022-07-29T00:08:50;101591.94;;;18.28;56.93
62420;BME280;48460;51.616;5.426;2022-07-29T00:11:15;101589.94;;;18.18;57.30
62420;BME280;48460;51.616;5.426;2022-07-29T00:13:41;101593.06;;;18.12;57.69
62420;BME280;48460;51.616;5.426;2022-07-29T00:16:06;101589.41;;;18.13;57.84
62420;BME280;48460;51.616;5.426;2022-07-29T00:18:32;101593.16;;;18.11;57.77
62420;BME280;48460;51.616;5.426;2022-07-29T00:20:57;101591.56;;;18.08;58.20
62420;BME280;48460;51.616;5.426;2022-07-29T00:23:23;101590.25;;;18.14;57.75
62420;BME280;48460;51.616;5.426;2022-07-29T00:25:48;101592.94;;;18.14;57.86
62420;BME280;48460;51.616;5.426;2022-07-29T00:28:13;101586.88;;;18.12;58.23
62420;BME280;48460;51.616;5.426;2022-07-29T00:30:39;101582.72;;;18.08;58.31
62420;BME280;48460;51.616;5.426;2022-07-29T00:33:07;101584.53;;;18.07;58.53
62420;BME280;48460;51.616;5.426;2022-07-29T00:35:33;101576.03;;;18.02;58.76
62420;BME280;48460;51.616;5.426;2022-07-29T00:38:17;101580.06;;;18.08;58.03
62420;BME280;48460;51.616;5.426;2022-07-29T00:40:43;101577.75;;;18.03;58.76
62420;BME280;48460;51.616;5.426;2022-07-29T00:43:09;101564.44;;;18.03;58.89
62420;BME280;48460;51.616;5.426;2022-07-29T00:45:35;101577.75;;;18.03;58.94
62420;BME280;48460;51.616;5.426;2022-07-29T00:48:01;101573.59;;;17.99;59.25
62420;BME280;48460;51.616;5.426;2022-07-29T00:50:26;101582.53;;;17.98;59.15
62420;BME280;48460;51.616;5.426;2022-07-29T00:52:52;101582.22;;;17.90;59.40
62420;BME280;48460;51.616;5.426;2022-07-29T00:55:18;101577.13;;;17.87;59.45
62420;BME280;48460;51.616;5.426;2022-07-29T00:57:44;101585.72;;;17.90;59.43
62420;BME280;48460;51.616;5.426;2022-07-29T01:00:19;101596.59;;;17.87;59.27
62420;BME280;48460;51.616;5.426;2022-07-29T01:02:46;101608.63;;;17.80;59.70
62420;BME280;48460;51.616;5.426;2022-07-29T01:05:14;101612.66;;;17.73;60.06
62420;BME280;48460;51.616;5.426;2022-07-29T01:07:40;101605.31;;;17.76;60.08
62420;BME280;48460;51.616;5.426;2022-07-29T01:10:08;101609.03;;;17.74;60.35
62420;BME280;48460;51.616;5.426;2022-07-29T01:12:35;101622.00;;;17.66;60.40
62420;BME280;48460;51.616;5.426;2022-07-29T01:15:03;101618.22;;;17.70;60.40
62420;BME280;48460;51.616;5.426;2022-07-29T01:17:35;101600.53;;;17.69;60.29
62420;BME280;48460;51.616;5.426;2022-07-29T01:20:06;101590.28;;;17.75;60.09
62420;BME280;48460;51.616;5.426;2022-07-29T01:31:03;101554.47;;;17.81;59.89
62420;BME280;48460;51.616;5.426;2022-07-29T01:33:30;101553.75;;;17.79;59.79
62420;BME280;48460;51.616;5.426;2022-07-29T01:36:18;101558.28;;;17.77;60.33
62420;BME280;48460;51.616;5.426;2022-07-29T01:38:54;101552.75;;;17.80;60.13
62420;BME280;48460;51.616;5.426;2022-07-29T01:41:20;101541.06;;;17.70;60.76
62420;BME280;48460;51.616;5.426;2022-07-29T01:44:02;101536.38;;;17.73;60.56
62420;BME280;48460;51.616;5.426;2022-07-29T01:46:38;101524.34;;;17.68;62.00
62420;BME280;48460;51.616;5.426;2022-07-29T01:49:14;101526.47;;;17.63;62.03
62420;BME280;48460;51.616;5.426;2022-07-29T01:51:51;101515.28;;;17.58;62.56
62420;BME280;48460;51.616;5.426;2022-07-29T01:54:34;101519.78;;;17.57;61.91
62420;BME280;48460;51.616;5.426;2022-07-29T01:57:01;101521.81;;;17.53;62.72
62420;BME280;48460;51.616;5.426;2022-07-29T01:59:30;101522.09;;;17.49;62.90
62420;BME280;48460;51.616;5.426;2022-07-29T02:01:58;101519.44;;;17.49;63.42
62420;BME280;48460;51.616;5.426;2022-07-29T02:04:25;101517.22;;;17.43;63.33
62420;BME280;48460;51.616;5.426;2022-07-29T02:06:54;101518.31;;;17.40;63.54
62420;BME280;48460;51.616;5.426;2022-07-29T02:09:23;101507.69;;;17.40;63.08
62420;BME280;48460;51.616;5.426;2022-07-29T02:11:53;101505.25;;;17.37;63.04
62420;BME280;48460;51.616;5.426;2022-07-29T02:14:21;101498.94;;;17.38;62.91
62420;BME280;48460;51.616;5.426;2022-07-29T02:16:52;101492.88;;;17.36;63.10
62420;BME280;48460;51.616;5.426;2022-07-29T02:19:19;101489.38;;;17.36;63.12
62420;BME280;48460;51.616;5.426;2022-07-29T02:21:46;101482.38;;;17.35;63.18
62420;BME280;48460;51.616;5.426;2022-07-29T02:24:12;101482.91;;;17.27;63.26
62420;BME280;48460;51.616;5.426;2022-07-29T02:26:40;101493.97;;;17.21;63.73
62420;BME280;48460;51.616;5.426;2022-07-29T02:29:08;101487.59;;;17.23;63.64
62420;BME280;48460;51.616;5.426;2022-07-29T02:31:35;101483.63;;;17.16;64.28
62420;BME280;48460;51.616;5.426;2022-07-29T02:34:03;101483.53;;;17.18;63.73
62420;BME280;48460;51.616;5.426;2022-07-29T02:36:31;101486.84;;;17.08;64.91
62420;BME280;48460;51.616;5.426;2022-07-29T02:38:58;101491.53;;;17.05;65.08
62420;BME280;48460;51.616;5.426;2022-07-29T02:41:42;101490.00;;;17.01;64.25
62420;BME280;48460;51.616;5.426;2022-07-29T02:44:12;101492.03;;;16.97;65.28
62420;BME280;48460;51.616;5.426;2022-07-29T02:46:43;101498.19;;;16.98;64.87
62420;BME280;48460;51.616;5.426;2022-07-29T02:49:46;101504.25;;;17.00;64.78
62420;BME280;48460;51.616;5.426;2022-07-29T02:52:16;101507.44;;;16.92;65.91
62420;BME280;48460;51.616;5.426;2022-07-29T02:55:32;101506.50;;;16.93;65.46
62420;BME280;48460;51.616;5.426;2022-07-29T02:57:34;101503.28;;;16.88;66.21
62420;BME280;48460;51.616;5.426;2022-07-29T03:00:05;101496.16;;;16.89;66.07
62420;BME280;48460;51.616;5.426;2022-07-29T03:02:37;101500.53;;;16.90;66.14
62420;BME280;48460;51.616;5.426;2022-07-29T03:05:04;101497.13;;;16.88;66.17
62420;BME280;48460;51.616;5.426;2022-07-29T03:07:33;101496.28;;;16.87;66.65
62420;BME280;48460;51.616;5.426;2022-07-29T03:09:59;101502.09;;;16.79;67.14
62420;BME280;48460;51.616;5.426;2022-07-29T03:12:26;101502.03;;;16.81;67.22
62420;BME280;48460;51.616;5.426;2022-07-29T03:14:52;101510.38;;;16.75;67.50
62420;BME280;48460;51.616;5.426;2022-07-29T03:17:18;101513.31;;;16.70;67.81
62420;BME280;48460;51.616;5.426;2022-07-29T03:19:45;101506.66;;;16.77;67.57
62420;BME280;48460;51.616;5.426;2022-07-29T03:22:10;101513.13;;;16.73;67.94
62420;BME280;48460;51.616;5.426;2022-07-29T03:24:36;101515.69;;;16.75;68.37
62420;BME280;48460;51.616;5.426;2022-07-29T03:27:03;101513.13;;;16.73;68.56
62420;BME280;48460;51.616;5.426;2022-07-29T03:29:29;101515.97;;;16.70;68.59
62420;BME280;48460;51.616;5.426;2022-07-29T03:31:55;101512.34;;;16.71;68.15
62420;BME280;48460;51.616;5.426;2022-07-29T03:34:20;101517.03;;;16.68;68.87
62420;BME280;48460;51.616;5.426;2022-07-29T03:36:46;101515.13;;;16.70;68.82
62420;BME280;48460;51.616;5.426;2022-07-29T03:39:17;101527.78;;;16.66;69.22
62420;BME280;48460;51.616;5.426;2022-07-29T03:41:44;101523.41;;;16.65;69.18
62420;BME280;48460;51.616;5.426;2022-07-29T03:44:12;101514.38;;;16.68;69.15
62420;BME280;48460;51.616;5.426;2022-07-29T03:46:39;101508.22;;;16.67;69.29
62420;BME280;48460;51.616;5.426;2022-07-29T03:49:06;101513.63;;;16.66;69.43
62420;BME280;48460;51.616;5.426;2022-07-29T03:51:33;101498.00;;;16.61;70.28
62420;BME280;48460;51.616;5.426;2022-07-29T03:54:03;101505.75;;;16.51;71.01
62420;BME280;48460;51.616;5.426;2022-07-29T03:56:32;101511.25;;;16.48;71.37
62420;BME280;48460;51.616;5.426;2022-07-29T03:59:01;101504.44;;;16.44;71.90
62420;BME280;48460;51.616;5.426;2022-07-29T04:01:28;101515.25;;;16.41;72.06
62420;BME280;48460;51.616;5.426;2022-07-29T04:03:53;101518.22;;;16.36;72.51
62420;BME280;48460;51.616;5.426;2022-07-29T04:06:19;101518.22;;;16.36;72.56
62420;BME280;48460;51.616;5.426;2022-07-29T04:08:44;101516.50;;;16.35;72.71
62420;BME280;48460;51.616;5.426;2022-07-29T04:11:10;101506.94;;;16.33;72.97
62420;BME280;48460;51.616;5.426;2022-07-29T04:13:36;101512.63;;;16.27;73.62
62420;BME280;48460;51.616;5.426;2022-07-29T04:16:01;101510.19;;;16.24;73.49
62420;BME280;48460;51.616;5.426;2022-07-29T04:18:27;101513.03;;;16.21;73.99
62420;BME280;48460;51.616;5.426;2022-07-29T04:20:53;101501.97;;;16.14;74.58
62420;BME280;48460;51.616;5.426;2022-07-29T04:23:18;101505.22;;;16.05;75.17
62420;BME280;48460;51.616;5.426;2022-07-29T04:25:44;101497.75;;;15.97;76.02
62420;BME280;48460;51.616;5.426;2022-07-29T04:28:09;101508.88;;;15.89;76.20
62420;BME280;48460;51.616;5.426;2022-07-29T04:30:36;101495.03;;;15.84;76.71
62420;BME280;48460;51.616;5.426;2022-07-29T04:33:03;101491.94;;;15.78;77.13
62420;BME280;48460;51.616;5.426;2022-07-29T04:35:30;101493.94;;;15.74;77.75
62420;BME280;48460;51.616;5.426;2022-07-29T04:37:56;101494.88;;;15.73;78.01
62420;BME280;48460;51.616;5.426;2022-07-29T04:40:21;101496.66;;;15.72;78.04
62420;BME280;48460;51.616;5.426;2022-07-29T04:42:47;101515.03;;;15.76;78.18
62420;BME280;48460;51.616;5.426;2022-07-29T04:45:12;101514.38;;;15.72;78.31
62420;BME280;48460;51.616;5.426;2022-07-29T04:47:38;101521.31;;;15.75;78.13
62420;BME280;48460;51.616;5.426;2022-07-29T04:50:04;101529.06;;;15.78;78.32
62420;BME280;48460;51.616;5.426;2022-07-29T04:52:32;101528.50;;;15.72;78.37
62420;BME280;48460;51.616;5.426;2022-07-29T04:54:57;101532.44;;;15.65;79.11
62420;BME280;48460;51.616;5.426;2022-07-29T04:57:22;101528.97;;;15.65;79.43
62420;BME280;48460;51.616;5.426;2022-07-29T04:59:48;101535.78;;;15.69;79.20
62420;BME280;48460;51.616;5.426;2022-07-29T05:02:14;101540.13;;;15.70;78.86
62420;BME280;48460;51.616;5.426;2022-07-29T05:04:39;101545.16;;;15.75;79.03
62420;BME280;48460;51.616;5.426;2022-07-29T05:07:05;101550.66;;;15.71;78.94
62420;BME280;48460;51.616;5.426;2022-07-29T05:09:30;101537.41;;;15.71;79.08
62420;BME280;48460;51.616;5.426;2022-07-29T05:11:57;101533.91;;;15.71;79.45
62420;BME280;48460;51.616;5.426;2022-07-29T05:14:23;101535.31;;;15.77;79.02
62420;BME280;48460;51.616;5.426;2022-07-29T05:16:48;101533.22;;;15.82;79.37
62420;BME280;48460;51.616;5.426;2022-07-29T05:19:16;101535.03;;;15.81;79.08
62420;BME280;48460;51.616;5.426;2022-07-29T05:21:41;101551.78;;;15.82;79.68
62420;BME280;48460;51.616;5.426;2022-07-29T05:24:07;101560.31;;;15.72;80.05
62420;BME280;48460;51.616;5.426;2022-07-29T05:26:33;101569.09;;;15.59;81.31
62420;BME280;48460;51.616;5.426;2022-07-29T05:28:58;101556.50;;;15.62;80.67
62420;BME280;48460;51.616;5.426;2022-07-29T05:31:23;101561.06;;;15.75;80.24
62420;BME280;48460;51.616;5.426;2022-07-29T05:33:49;101564.19;;;15.81;80.35
62420;BME280;48460;51.616;5.426;2022-07-29T05:36:14;101567.22;;;15.89;79.75
62420;BME280;48460;51.616;5.426;2022-07-29T05:38:39;101567.88;;;15.93;79.21
62420;BME280;48460;51.616;5.426;2022-07-29T05:41:11;101556.69;;;16.02;78.39
62420;BME280;48460;51.616;5.426;2022-07-29T05:43:36;101556.41;;;16.07;78.27
62420;BME280;48460;51.616;5.426;2022-07-29T05:46:02;101561.22;;;16.14;78.32
62420;BME280;48460;51.616;5.426;2022-07-29T05:48:27;101568.69;;;16.22;77.89
62420;BME280;48460;51.616;5.426;2022-07-29T05:50:53;101571.03;;;16.27;77.73
62420;BME280;48460;51.616;5.426;2022-07-29T05:53:18;101576.81;;;16.33;77.38
62420;BME280;48460;51.616;5.426;2022-07-29T05:55:44;101575.59;;;16.39;77.27
62420;BME280;48460;51.616;5.426;2022-07-29T05:58:09;101576.88;;;16.46;76.68
62420;BME280;48460;51.616;5.426;2022-07-29T06:00:34;101570.13;;;16.55;76.54
62420;BME280;48460;51.616;5.426;2022-07-29T06:03:00;101574.91;;;16.62;76.21
62420;BME280;48460;51.616;5.426;2022-07-29T06:05:25;101569.75;;;16.74;75.68
62420;BME280;48460;51.616;5.426;2022-07-29T06:07:50;101568.88;;;16.88;75.41
62420;BME280;48460;51.616;5.426;2022-07-29T06:10:16;101566.75;;;16.93;75.06
62420;BME280;48460;51.616;5.426;2022-07-29T06:12:41;101568.94;;;16.86;74.71
62420;BME280;48460;51.616;5.426;2022-07-29T06:15:07;101565.03;;;16.92;74.65
62420;BME280;48460;51.616;5.426;2022-07-29T06:17:33;101569.41;;;16.93;74.40
62420;BME280;48460;51.616;5.426;2022-07-29T06:19:58;101569.22;;;16.96;74.39
62420;BME280;48460;51.616;5.426;2022-07-29T06:22:24;101567.19;;;16.99;74.71
62420;BME280;48460;51.616;5.426;2022-07-29T06:24:49;101560.91;;;17.00;73.96
62420;BME280;48460;51.616;5.426;2022-07-29T06:27:15;101568.59;;;17.05;74.43
62420;BME280;48460;51.616;5.426;2022-07-29T06:29:41;101570.28;;;17.06;73.69
62420;BME280;48460;51.616;5.426;2022-07-29T06:32:06;101569.66;;;17.15;73.77
62420;BME280;48460;51.616;5.426;2022-07-29T06:34:34;101566.56;;;17.21;73.38
62420;BME280;48460;51.616;5.426;2022-07-29T06:37:00;101566.06;;;17.29;72.56
62420;BME280;48460;51.616;5.426;2022-07-29T06:39:25;101566.69;;;17.33;72.40
62420;BME280;48460;51.616;5.426;2022-07-29T06:41:52;101574.47;;;17.36;72.46
62420;BME280;48460;51.616;5.426;2022-07-29T06:44:18;101566.06;;;17.42;71.75
62420;BME280;48460;51.616;5.426;2022-07-29T06:46:43;101571.91;;;17.47;71.99
62420;BME280;48460;51.616;5.426;2022-07-29T06:49:09;101564.34;;;17.53;71.33
62420;BME280;48460;51.616;5.426;2022-07-29T06:51:35;101565.63;;;17.61;71.63
62420;BME280;48460;51.616;5.426;2022-07-29T06:54:02;101568.72;;;17.67;70.87
62420;BME280;48460;51.616;5.426;2022-07-29T06:56:32;101573.38;;;17.64;70.54
62420;BME280;48460;51.616;5.426;2022-07-29T06:58:58;101582.03;;;17.67;70.57
62420;BME280;48460;51.616;5.426;2022-07-29T07:01:23;101578.59;;;17.65;70.40
62420;BME280;48460;51.616;5.426;2022-07-29T07:03:49;101579.66;;;17.75;70.31
62420;BME280;48460;51.616;5.426;2022-07-29T07:06:14;101580.84;;;17.71;70.43
62420;BME280;48460;51.616;5.426;2022-07-29T07:08:40;101587.34;;;17.80;70.28
62420;BME280;48460;51.616;5.426;2022-07-29T07:11:05;101589.16;;;17.92;70.09
62420;BME280;48460;51.616;5.426;2022-07-29T07:13:32;101578.59;;;18.04;69.34
62420;BME280;48460;51.616;5.426;2022-07-29T07:16:00;101589.09;;;18.05;68.99
62420;BME280;48460;51.616;5.426;2022-07-29T07:18:25;101581.56;;;17.99;68.96
62420;BME280;48460;51.616;5.426;2022-07-29T07:20:51;101585.81;;;18.02;69.02
62420;BME280;48460;51.616;5.426;2022-07-29T07:23:16;101585.81;;;18.02;69.11
62420;BME280;48460;51.616;5.426;2022-07-29T07:25:42;101591.50;;;17.97;69.28
62420;BME280;48460;51.616;5.426;2022-07-29T07:28:07;101583.72;;;17.94;70.07
62420;BME280;48460;51.616;5.426;2022-07-29T07:30:33;101588.88;;;18.08;69.78
62420;BME280;48460;51.616;5.426;2022-07-29T07:32:59;101581.84;;;18.20;69.02
62420;BME280;48460;51.616;5.426;2022-07-29T07:35:25;101582.03;;;18.30;69.39
62420;BME280;48460;51.616;5.426;2022-07-29T07:37:53;101577.84;;;18.62;68.75
62420;BME280;48460;51.616;5.426;2022-07-29T07:40:18;101581.44;;;19.09;66.17
62420;BME280;48460;51.616;5.426;2022-07-29T07:42:44;101586.16;;;19.52;64.22
62420;BME280;48460;51.616;5.426;2022-07-29T07:45:10;101583.50;;;19.86;62.87
62420;BME280;48460;51.616;5.426;2022-07-29T07:47:36;101579.88;;;19.98;62.23
62420;BME280;48460;51.616;5.426;2022-07-29T07:50:04;101583.13;;;20.13;61.03
62420;BME280;48460;51.616;5.426;2022-07-29T07:52:30;101590.72;;;20.40;60.70
62420;BME280;48460;51.616;5.426;2022-07-29T07:54:55;101584.25;;;20.65;60.28
62420;BME280;48460;51.616;5.426;2022-07-29T07:57:20;101587.75;;;20.98;59.59
62420;BME280;48460;51.616;5.426;2022-07-29T07:59:46;101585.16;;;21.08;58.64
62420;BME280;48460;51.616;5.426;2022-07-29T08:02:11;101588.22;;;21.24;57.95
62420;BME280;48460;51.616;5.426;2022-07-29T08:04:37;101592.88;;;21.43;57.29
62420;BME280;48460;51.616;5.426;2022-07-29T08:07:05;101582.31;;;21.72;57.15
62420;BME280;48460;51.616;5.426;2022-07-29T08:09:31;101586.34;;;21.97;56.63
62420;BME280;48460;51.616;5.426;2022-07-29T08:11:57;101580.13;;;22.27;56.56
62420;BME280;48460;51.616;5.426;2022-07-29T08:14:23;101591.06;;;22.55;55.45
62420;BME280;48460;51.616;5.426;2022-07-29T08:16:48;101596.56;;;22.83;54.32
62420;BME280;48460;51.616;5.426;2022-07-29T08:19:14;101589.66;;;23.19;53.86
62420;BME280;48460;51.616;5.426;2022-07-29T08:21:40;101591.06;;;23.04;52.53
62420;BME280;48460;51.616;5.426;2022-07-29T08:24:05;101592.44;;;23.37;52.94
62420;BME280;48460;51.616;5.426;2022-07-29T08:26:50;101592.09;;;23.59;51.26
62420;BME280;48460;51.616;5.426;2022-07-29T08:29:15;101599.22;;;23.88;50.86
62420;BME280;48460;51.616;5.426;2022-07-29T08:31:41;101589.72;;;24.21;50.42
62420;BME280;48460;51.616;5.426;2022-07-29T08:34:07;101584.38;;;24.39;49.00
62420;BME280;48460;51.616;5.426;2022-07-29T08:36:33;101594.25;;;24.48;48.89
62420;BME280;48460;51.616;5.426;2022-07-29T08:38:59;101593.88;;;24.61;48.15
62420;BME280;48460;51.616;5.426;2022-07-29T08:41:25;101593.63;;;24.90;47.08
62420;BME280;48460;51.616;5.426;2022-07-29T08:43:51;101596.97;;;25.10;45.85
62420;BME280;48460;51.616;5.426;2022-07-29T08:46:17;101600.28;;;25.22;45.07
62420;BME280;48460;51.616;5.426;2022-07-29T08:48:43;101605.75;;;25.30;45.90
62420;BME280;48460;51.616;5.426;2022-07-29T08:51:13;101604.06;;;25.11;45.44
62420;BME280;48460;51.616;5.426;2022-07-29T08:53:42;101604.78;;;25.39;45.88
62420;BME280;48460;51.616;5.426;2022-07-29T08:56:11;101601.91;;;25.59;45.16
62420;BME280;48460;51.616;5.426;2022-07-29T08:58:39;101600.25;;;25.66;44.44
62420;BME280;48460;51.616;5.426;2022-07-29T09:01:05;101599.50;;;25.82;44.73
62420;BME280;48460;51.616;5.426;2022-07-29T09:03:32;101594.06;;;26.08;43.42
62420;BME280;48460;51.616;5.426;2022-07-29T09:06:00;101591.28;;;26.34;43.16
62420;BME280;48460;51.616;5.426;2022-07-29T09:08:27;101585.44;;;26.55;42.71
62420;BME280;48460;51.616;5.426;2022-07-29T09:10:52;101585.47;;;26.88;42.45
62420;BME280;48460;51.616;5.426;2022-07-29T09:13:18;101588.50;;;27.09;41.05
62420;BME280;48460;51.616;5.426;2022-07-29T09:15:44;101594.38;;;27.45;40.53
62420;BME280;48460;51.616;5.426;2022-07-29T09:18:10;101589.50;;;27.41;39.09
62420;BME280;48460;51.616;5.426;2022-07-29T09:20:35;101587.00;;;27.31;39.14
62420;BME280;48460;51.616;5.426;2022-07-29T09:23:19;101588.06;;;27.86;38.14
62420;BME280;48460;51.616;5.426;2022-07-29T09:25:44;101589.91;;;27.85;39.12
62420;BME280;48460;51.616;5.426;2022-07-29T09:28:14;101596.63;;;27.34;40.51
62420;BME280;48460;51.616;5.426;2022-07-29T09:30:55;101596.56;;;27.66;41.17
62420;BME280;48460;51.616;5.426;2022-07-29T09:33:22;101596.56;;;27.58;40.55
62420;BME280;48460;51.616;5.426;2022-07-29T09:36:04;101599.28;;;27.58;41.29
62420;BME280;48460;51.616;5.426;2022-07-29T09:38:32;101594.91;;;27.49;40.32
62420;BME280;48460;51.616;5.426;2022-07-29T09:40:59;101598.03;;;27.77;40.10
62420;BME280;48460;51.616;5.426;2022-07-29T09:43:25;101602.66;;;28.08;38.50
62420;BME280;48460;51.616;5.426;2022-07-29T09:45:50;101597.97;;;28.41;36.74
62420;BME280;48460;51.616;5.426;2022-07-29T09:48:21;101610.47;;;28.65;36.59
62420;BME280;48460;51.616;5.426;2022-07-29T09:50:49;101604.41;;;28.63;35.74
62420;BME280;48460;51.616;5.426;2022-07-29T09:53:34;101596.44;;;28.61;36.73
62420;BME280;48460;51.616;5.426;2022-07-29T09:56:00;101604.09;;;28.81;34.71
62420;BME280;48460;51.616;5.426;2022-07-29T09:58:26;101605.41;;;28.85;35.11
62420;BME280;48460;51.616;5.426;2022-07-29T10:00:52;101607.78;;;29.26;34.48
62420;BME280;48460;51.616;5.426;2022-07-29T10:03:18;101607.94;;;29.62;33.23
62420;BME280;48460;51.616;5.426;2022-07-29T10:05:45;101609.13;;;30.04;33.27
62420;BME280;48460;51.616;5.426;2022-07-29T10:08:11;101597.56;;;30.47;32.71
62420;BME280;48460;51.616;5.426;2022-07-29T10:10:42;101600.09;;;30.70;32.19
62420;BME280;48460;51.616;5.426;2022-07-29T10:13:12;101604.22;;;30.65;31.52
62420;BME280;48460;51.616;5.426;2022-07-29T10:15:39;101598.25;;;30.92;32.48
62420;BME280;48460;51.616;5.426;2022-07-29T10:18:07;101595.53;;;30.92;31.25
62420;BME280;48460;51.616;5.426;2022-07-29T10:20:33;101597.75;;;31.09;31.08
62420;BME280;48460;51.616;5.426;2022-07-29T10:22:59;101592.59;;;31.43;30.63
62420;BME280;48460;51.616;5.426;2022-07-29T10:25:25;101591.69;;;31.07;30.31
62420;BME280;48460;51.616;5.426;2022-07-29T10:27:51;101586.38;;;30.99;30.70
62420;BME280;48460;51.616;5.426;2022-07-29T10:30:18;101589.47;;;31.46;29.80
62420;BME280;48460;51.616;5.426;2022-07-29T10:36:02;101590.28;;;32.22;29.48
62420;BME280;48460;51.616;5.426;2022-07-29T10:44:21;101586.28;;;32.18;29.65
62420;BME280;48460;51.616;5.426;2022-07-29T10:46:48;101583.84;;;32.43;28.70
62420;BME280;48460;51.616;5.426;2022-07-29T10:49:19;101584.34;;;32.94;28.30
62420;BME280;48460;51.616;5.426;2022-07-29T10:54:46;101577.44;;;32.91;28.14
62420;BME280;48460;51.616;5.426;2022-07-29T10:57:25;101584.34;;;32.67;28.08
62420;BME280;48460;51.616;5.426;2022-07-29T11:05:17;101580.97;;;32.65;28.56
62420;BME280;48460;51.616;5.426;2022-07-29T11:10:38;101573.25;;;32.82;27.66
62420;BME280;48460;51.616;5.426;2022-07-29T11:13:03;101567.44;;;32.23;29.01
62420;BME280;48460;51.616;5.426;2022-07-29T11:15:29;101566.31;;;32.79;28.82
62420;BME280;48460;51.616;5.426;2022-07-29T11:18:15;101569.63;;;33.34;27.64
62420;BME280;48460;51.616;5.426;2022-07-29T11:20:42;101576.97;;;33.54;27.00
62420;BME280;48460;51.616;5.426;2022-07-29T11:25:45;101563.88;;;34.28;26.05
62420;BME280;48460;51.616;5.426;2022-07-29T11:28:14;101572.09;;;34.53;26.12
62420;BME280;48460;51.616;5.426;2022-07-29T11:30:52;101565.03;;;34.38;27.34
62420;BME280;48460;51.616;5.426;2022-07-29T11:33:28;101575.38;;;34.36;26.00
62420;BME280;48460;51.616;5.426;2022-07-29T11:36:09;101557.97;;;34.31;26.48
62420;BME280;48460;51.616;5.426;2022-07-29T11:38:36;101564.06;;;34.64;25.52
62420;BME280;48460;51.616;5.426;2022-07-29T11:41:27;101566.63;;;34.84;25.62
62420;BME280;48460;51.616;5.426;2022-07-29T11:43:59;101560.56;;;34.57;24.61
62420;BME280;48460;51.616;5.426;2022-07-29T11:49:08;101568.75;;;34.51;24.92
62420;BME280;48460;51.616;5.426;2022-07-29T11:51:36;101577.19;;;34.81;24.82
62420;BME280;48460;51.616;5.426;2022-07-29T11:54:04;101571.28;;;34.14;24.07
62420;BME280;48460;51.616;5.426;2022-07-29T11:56:31;101565.41;;;34.17;25.13
62420;BME280;48460;51.616;5.426;2022-07-29T11:59:04;101568.59;;;34.45;25.81
62420;BME280;48460;51.616;5.426;2022-07-29T12:01:30;101568.75;;;34.57;25.50
62420;BME280;48460;51.616;5.426;2022-07-29T12:04:05;101567.72;;;35.08;25.14
62420;BME280;48460;51.616;5.426;2022-07-29T12:06:32;101564.44;;;35.18;23.97
62420;BME280;48460;51.616;5.426;2022-07-29T12:08:58;101564.09;;;35.51;23.79
62420;BME280;48460;51.616;5.426;2022-07-29T12:11:23;101570.19;;;35.10;23.58
62420;BME280;48460;51.616;5.426;2022-07-29T12:13:52;101574.88;;;35.28;24.07
62420;BME280;48460;51.616;5.426;2022-07-29T12:16:21;101574.81;;;35.53;23.18
62420;BME280;48460;51.616;5.426;2022-07-29T12:19:00;101574.78;;;34.91;24.82
62420;BME280;48460;51.616;5.426;2022-07-29T12:21:27;101570.53;;;34.70;24.68
62420;BME280;48460;51.616;5.426;2022-07-29T12:23:54;101567.03;;;34.63;24.09
62420;BME280;48460;51.616;5.426;2022-07-29T12:26:20;101568.59;;;35.02;24.32
62420;BME280;48460;51.616;5.426;2022-07-29T12:28:46;101561.97;;;35.35;23.49
62420;BME280;48460;51.616;5.426;2022-07-29T12:31:15;101568.22;;;35.79;23.31
62420;BME280;48460;51.616;5.426;2022-07-29T12:33:41;101566.19;;;35.56;22.56
62420;BME280;48460;51.616;5.426;2022-07-29T12:36:07;101564.16;;;35.08;22.80
62420;BME280;48460;51.616;5.426;2022-07-29T12:38:37;101559.78;;;35.25;23.27
62420;BME280;48460;51.616;5.426;2022-07-29T12:41:05;101566.53;;;34.73;23.55
62420;BME280;48460;51.616;5.426;2022-07-29T12:43:32;101570.19;;;34.53;24.38
62420;BME280;48460;51.616;5.426;2022-07-29T12:46:11;101560.56;;;34.57;24.56
62420;BME280;48460;51.616;5.426;2022-07-29T12:48:42;101563.91;;;34.53;24.56
62420;BME280;48460;51.616;5.426;2022-07-29T12:51:09;101559.13;;;35.05;23.91
62420;BME280;48460;51.616;5.426;2022-07-29T12:53:36;101556.69;;;35.58;23.90
62420;BME280;48460;51.616;5.426;2022-07-29T12:56:03;101559.47;;;35.52;23.33
62420;BME280;48460;51.616;5.426;2022-07-29T12:58:37;101557.94;;;35.19;23.55
62420;BME280;48460;51.616;5.426;2022-07-29T13:03:57;101555.31;;;34.49;24.57
62420;BME280;48460;51.616;5.426;2022-07-29T13:06:41;101548.06;;;35.36;24.20
62420;BME280;48460;51.616;5.426;2022-07-29T13:09:13;101557.16;;;35.55;23.74
62420;BME280;48460;51.616;5.426;2022-07-29T13:11:57;101555.75;;;35.46;23.52
62420;BME280;48460;51.616;5.426;2022-07-29T13:14:41;101551.69;;;35.55;23.69
62420;BME280;48460;51.616;5.426;2022-07-29T13:17:21;101548.66;;;35.20;23.85
62420;BME280;48460;51.616;5.426;2022-07-29T13:19:53;101552.31;;;34.25;23.40
62420;BME280;48460;51.616;5.426;2022-07-29T13:22:29;101545.03;;;34.44;23.63
62420;BME280;48460;51.616;5.426;2022-07-29T13:24:57;101557.88;;;34.76;23.99
62420;BME280;48460;51.616;5.426;2022-07-29T13:27:27;101554.53;;;34.99;23.55
62420;BME280;48460;51.616;5.426;2022-07-29T13:29:54;101559.69;;;35.13;22.60
62420;BME280;48460;51.616;5.426;2022-07-29T13:32:23;101556.69;;;35.58;22.51